Time;durP1;ratioP1;P1;durP2;ratioP2;P2;SDS_P1;SDS_P2;PMS_P1;PMS_P2;Temp;Humidity;BMP_temperature;BMP_pressure;BME280_temperature;BME280_humidity;BME280_pressure;Samples;Min_cycle;Max_cycle;Signal;HPM_P1;HPM_P2
2022/11/25 03:02:15;;;;;;;17.70;16.30;;;1.80;99.90;;;;;;5185957;23;20518;-82
2022/11/25 03:04:43;;;;;;;18.87;17.17;;;1.80;99.90;;;;;;4925853;29;20479;-82
2022/11/25 03:07:10;;;;;;;17.87;16.37;;;1.90;99.90;;;;;;4923039;29;20495;-82
2022/11/25 03:09:37;;;;;;;19.70;17.77;;;1.90;99.90;;;;;;4920183;29;20459;-82
2022/11/25 03:12:19;;;;;;;20.43;18.63;;;1.90;99.90;;;;;;4918070;29;20754;-82
2022/11/25 03:14:47;;;;;;;19.30;17.60;;;2.00;99.90;;;;;;4910337;29;20490;-82
2022/11/25 03:17:15;;;;;;;19.97;18.13;;;2.00;99.90;;;;;;4910201;29;20714;-81
2022/11/25 03:19:42;;;;;;;21.07;18.97;;;2.00;99.90;;;;;;4913719;29;20944;-82
2022/11/25 03:22:11;;;;;;;18.83;17.43;;;2.00;99.90;;;;;;4911131;29;20311;-82
2022/11/25 03:24:39;;;;;;;19.40;17.67;;;2.10;99.90;;;;;;4913028;29;20563;-82
2022/11/25 03:27:06;;;;;;;20.87;18.97;;;2.10;99.90;;;;;;4912053;29;20443;-82
2022/11/25 03:29:33;;;;;;;20.20;18.33;;;2.00;99.90;;;;;;4915200;29;20465;-82
2022/11/25 03:32:00;;;;;;;20.43;18.53;;;2.10;99.90;;;;;;4912349;29;20475;-81
2022/11/25 03:34:29;;;;;;;20.00;18.27;;;2.10;99.90;;;;;;4905830;29;20457;-82
2022/11/25 03:36:56;;;;;;;20.67;18.77;;;2.10;99.90;;;;;;4908727;29;20478;-82
2022/11/25 03:39:26;;;;;;;20.17;18.50;;;2.10;99.90;;;;;;4909916;29;21110;-82
2022/11/25 03:41:53;;;;;;;19.97;18.37;;;2.10;99.90;;;;;;4911288;29;20467;-80
2022/11/25 03:44:21;;;;;;;20.70;18.93;;;2.20;99.90;;;;;;4908411;29;20475;-81
2022/11/25 03:46:47;;;;;;;19.47;17.87;;;2.20;99.90;;;;;;4908987;29;20455;-81
2022/11/25 03:49:14;;;;;;;20.47;18.33;;;2.20;99.90;;;;;;4907610;29;20235;-81
2022/11/25 03:51:43;;;;;;;20.90;18.87;;;2.30;99.90;;;;;;4903667;29;20478;-78
2022/11/25 03:54:10;;;;;;;21.23;19.07;;;2.20;99.90;;;;;;4901936;29;20204;-78
2022/11/25 03:56:56;;;;;;;20.27;18.43;;;2.30;99.90;;;;;;4915825;29;20467;-78
2022/11/25 03:59:23;;;;;;;20.47;18.77;;;2.30;99.90;;;;;;4911636;29;20496;-79
2022/11/25 04:01:51;;;;;;;21.10;19.00;;;2.40;99.90;;;;;;4900904;29;20476;-78
2022/11/25 04:04:18;;;;;;;20.37;18.67;;;2.30;99.90;;;;;;4901021;29;20288;-78
2022/11/25 04:06:46;;;;;;;20.97;19.07;;;2.30;99.90;;;;;;4897543;29;21148;-78
2022/11/25 04:09:13;;;;;;;23.07;20.70;;;2.40;99.90;;;;;;4905986;29;20696;-79
2022/11/25 04:14:27;;;;;;;20.03;18.20;;;2.30;99.90;;;;;;4920394;29;20192;-77
2022/11/25 04:16:54;;;;;;;21.50;19.30;;;2.40;99.90;;;;;;4903531;29;20204;-82
2022/11/25 04:19:21;;;;;;;22.57;20.30;;;2.40;99.90;;;;;;4910548;29;20544;-81
2022/11/25 04:21:50;;;;;;;22.10;20.20;;;2.50;99.90;;;;;;4916751;29;20223;-82
2022/11/25 04:24:16;;;;;;;21.60;19.67;;;2.50;99.90;;;;;;4912224;29;20472;-82
2022/11/25 04:26:43;;;;;;;20.57;18.67;;;2.40;99.90;;;;;;4915910;29;20681;-84
2022/11/25 04:29:11;;;;;;;20.60;18.70;;;2.50;99.90;;;;;;4905712;29;20229;-82
2022/11/25 04:31:38;;;;;;;20.73;19.03;;;2.50;99.90;;;;;;4917082;29;20520;-81
2022/11/25 04:34:05;;;;;;;21.20;19.17;;;2.50;99.90;;;;;;4911319;29;21044;-80
2022/11/25 04:36:32;;;;;;;20.90;19.20;;;2.50;99.90;;;;;;4912242;29;20752;-81
2022/11/25 04:39:01;;;;;;;20.97;19.17;;;2.40;99.90;;;;;;4910913;29;20461;-80
2022/11/25 04:41:28;;;;;;;20.63;18.80;;;2.40;99.90;;;;;;4919252;29;21065;-81
2022/11/25 04:43:54;;;;;;;22.30;20.20;;;2.40;99.90;;;;;;4907996;29;20480;-80
2022/11/25 04:46:27;;;;;;;22.47;20.43;;;2.30;99.90;;;;;;4912874;29;20227;-80
2022/11/25 04:48:55;;;;;;;23.47;21.07;;;2.30;99.90;;;;;;4909453;29;20249;-81
2022/11/25 04:51:22;;;;;;;24.30;21.90;;;2.20;99.90;;;;;;4916649;29;20463;-81
2022/11/25 04:53:52;;;;;;;24.83;22.47;;;2.20;99.90;;;;;;4914234;29;20287;-82
2022/11/25 04:56:23;;;;;;;23.80;21.43;;;2.20;99.90;;;;;;4913167;29;20471;-81
2022/11/25 05:01:41;;;;;;;23.17;21.07;;;2.10;99.90;;;;;;4887805;29;20473;-82
2022/11/25 05:04:30;;;;;;;24.03;21.67;;;2.00;99.90;;;;;;4894791;29;20218;-81
2022/11/25 05:06:57;;;;;;;22.70;20.60;;;2.00;99.90;;;;;;4908664;29;20469;-82
2022/11/25 05:09:25;;;;;;;22.83;20.70;;;2.00;99.90;;;;;;4914614;29;20452;-81
2022/11/25 05:12:08;;;;;;;21.40;19.43;;;2.00;99.90;;;;;;4914978;29;20562;-82
2022/11/25 05:14:35;;;;;;;21.70;19.73;;;1.90;99.90;;;;;;4911086;29;20455;-82
2022/11/25 05:17:02;;;;;;;21.80;19.57;;;1.90;99.90;;;;;;4915928;29;20436;-82
2022/11/25 05:19:30;;;;;;;21.80;19.50;;;1.80;99.90;;;;;;4911451;29;20920;-81
2022/11/25 05:21:57;;;;;;;20.57;18.50;;;1.80;99.90;;;;;;4906710;29;20485;-81
2022/11/25 05:24:25;;;;;;;21.87;19.70;;;1.70;99.90;;;;;;4915939;29;20561;-82
2022/11/25 05:26:53;;;;;;;19.97;18.27;;;1.70;99.90;;;;;;4909116;29;20472;-82
2022/11/25 05:29:21;;;;;;;21.50;19.33;;;1.60;99.90;;;;;;4915839;29;21020;-81
2022/11/25 05:31:48;;;;;;;22.07;20.27;;;1.60;99.90;;;;;;4912913;29;20843;-81
2022/11/25 05:34:16;;;;;;;22.07;20.10;;;1.50;99.90;;;;;;4912801;29;20458;-82
2022/11/25 05:36:47;;;;;;;22.97;20.97;;;1.50;99.90;;;;;;4911055;29;20520;-82
2022/11/25 05:39:15;;;;;;;22.90;20.80;;;1.50;99.90;;;;;;4910063;29;20544;-82
2022/11/25 05:42:02;;;;;;;20.23;18.03;;;1.50;99.90;;;;;;4908671;29;20476;-82
2022/11/25 05:44:30;;;;;;;21.03;19.00;;;1.50;99.90;;;;;;4906336;29;20473;-81
2022/11/25 05:46:57;;;;;;;22.83;20.60;;;1.50;99.90;;;;;;4910437;29;20448;-81
2022/11/25 05:49:24;;;;;;;23.70;21.27;;;1.50;99.90;;;;;;4916835;29;20454;-82
2022/11/25 05:51:51;;;;;;;24.13;21.73;;;1.60;99.90;;;;;;4912505;29;20555;-82
2022/11/25 05:54:21;;;;;;;25.17;22.77;;;1.50;99.90;;;;;;4910718;29;20454;-81
2022/11/25 05:56:47;;;;;;;25.77;23.20;;;1.60;99.90;;;;;;4913934;29;20460;-81
2022/11/25 05:59:42;;;;;;;24.30;21.80;;;1.60;99.90;;;;;;4910071;29;20458;-81
2022/11/25 06:02:19;;;;;;;24.20;21.90;;;1.60;99.90;;;;;;4910712;29;20488;-81
2022/11/25 06:04:46;;;;;;;25.13;22.63;;;1.70;99.90;;;;;;4909785;29;20488;-82
2022/11/25 06:07:13;;;;;;;24.10;21.53;;;1.70;99.90;;;;;;4913729;29;20906;-81
2022/11/25 06:09:41;;;;;;;23.93;21.67;;;1.70;99.90;;;;;;4907560;29;20460;-81
2022/11/25 06:12:08;;;;;;;23.33;21.33;;;1.60;99.90;;;;;;4910242;29;20479;-81
2022/11/25 06:14:43;;;;;;;24.80;22.30;;;1.60;99.90;;;;;;4914985;29;20843;-82
2022/11/25 06:17:10;;;;;;;24.50;22.17;;;1.60;99.90;;;;;;4915688;29;20464;-81
2022/11/25 06:19:44;;;;;;;23.33;21.17;;;1.70;99.90;;;;;;4909967;29;20864;-82
2022/11/25 06:22:11;;;;;;;23.07;21.03;;;1.60;99.90;;;;;;4914942;29;20488;-82
2022/11/25 06:24:38;;;;;;;23.80;21.30;;;1.60;99.90;;;;;;4911564;29;20488;-81
2022/11/25 06:27:07;;;;;;;22.67;20.67;;;1.60;99.90;;;;;;4911284;29;20547;-81
2022/11/25 06:29:35;;;;;;;22.67;20.77;;;1.70;99.90;;;;;;4917435;29;20546;-81
2022/11/25 06:32:04;;;;;;;22.20;20.30;;;1.80;99.90;;;;;;4918752;29;20467;-82
2022/11/25 06:34:51;;;;;;;22.93;21.03;;;1.90;99.90;;;;;;4918479;29;20463;-81
2022/11/25 06:37:34;;;;;;;22.60;20.57;;;2.00;99.90;;;;;;4911134;29;20812;-81
2022/11/25 06:40:01;;;;;;;23.23;21.17;;;2.10;99.90;;;;;;4907069;29;20468;-80
2022/11/25 06:42:27;;;;;;;23.50;21.50;;;2.20;99.90;;;;;;4907945;29;20464;-78
2022/11/25 06:44:55;;;;;;;23.97;21.53;;;2.20;99.90;;;;;;4912802;29;20224;-83
2022/11/25 06:47:25;;;;;;;22.87;20.77;;;2.30;99.90;;;;;;4918686;29;20499;-81
2022/11/25 06:49:52;;;;;;;23.03;20.83;;;2.30;99.90;;;;;;4917570;29;20474;-80
2022/11/25 06:52:19;;;;;;;22.57;20.77;;;2.30;99.90;;;;;;4917224;29;20464;-81
2022/11/25 06:54:48;;;;;;;21.93;20.10;;;2.40;99.90;;;;;;4881541;29;20438;-81
2022/11/25 06:57:18;;;;;;;22.40;20.27;;;2.40;99.90;;;;;;4916260;29;20462;-81
2022/11/25 06:59:45;;;;;;;22.43;20.53;;;2.50;99.90;;;;;;4915134;29;20948;-81
2022/11/25 07:02:13;;;;;;;21.33;19.53;;;2.60;99.90;;;;;;4904086;29;20242;-81
2022/11/25 07:04:41;;;;;;;20.87;19.00;;;2.60;99.90;;;;;;4911334;29;20223;-81
2022/11/25 07:07:09;;;;;;;21.80;20.10;;;2.60;99.90;;;;;;4909379;29;20670;-81
2022/11/25 07:09:40;;;;;;;21.13;19.33;;;2.60;99.90;;;;;;4908961;29;20240;-81
2022/11/25 07:12:07;;;;;;;21.27;19.57;;;2.70;99.90;;;;;;4914764;29;20468;-81
2022/11/25 07:14:34;;;;;;;22.43;20.50;;;2.80;99.90;;;;;;4913880;29;20682;-81
2022/11/25 07:17:04;;;;;;;22.10;20.30;;;2.80;99.90;;;;;;4898885;29;20264;-81
2022/11/25 07:19:35;;;;;;;21.83;20.10;;;2.90;99.90;;;;;;4898225;29;20193;-81
2022/11/25 07:22:05;;;;;;;21.70;19.77;;;3.00;99.90;;;;;;4913077;29;20868;-81
2022/11/25 07:24:32;;;;;;;21.50;19.60;;;3.00;99.90;;;;;;4898296;29;20319;-82
2022/11/25 07:26:59;;;;;;;21.47;19.83;;;3.10;99.90;;;;;;4899098;29;20634;-82
2022/11/25 07:29:26;;;;;;;21.30;19.60;;;3.10;99.90;;;;;;4912360;29;20458;-82
2022/11/25 07:31:53;;;;;;;20.83;19.10;;;3.20;99.90;;;;;;4912892;29;20247;-82
2022/11/25 07:34:21;;;;;;;20.73;19.23;;;3.20;99.90;;;;;;4913532;29;20208;-82
2022/11/25 07:36:49;;;;;;;19.60;18.00;;;3.30;99.90;;;;;;4907042;29;20196;-83
2022/11/25 07:39:20;;;;;;;17.70;16.30;;;3.40;99.90;;;;;;4907398;29;20660;-82
2022/11/25 07:41:49;;;;;;;20.07;18.60;;;3.40;99.90;;;;;;4913280;29;20230;-82
2022/11/25 07:44:16;;;;;;;17.73;16.27;;;3.40;99.90;;;;;;4918148;29;20228;-82
2022/11/25 07:46:50;;;;;;;18.30;16.63;;;3.40;99.90;;;;;;4914218;29;20205;-82
2022/11/25 07:49:19;;;;;;;17.47;15.97;;;3.60;99.90;;;;;;4913674;29;20290;-82
2022/11/25 07:51:49;;;;;;;18.17;16.67;;;3.70;99.90;;;;;;4915680;29;20243;-82
2022/11/25 07:54:17;;;;;;;18.80;17.23;;;3.80;99.90;;;;;;4918089;29;20378;-82
2022/11/25 07:56:45;;;;;;;19.87;18.37;;;3.90;99.90;;;;;;4913849;29;20196;-82
2022/11/25 07:59:14;;;;;;;20.00;18.57;;;4.00;99.90;;;;;;4912643;29;20200;-82
2022/11/25 08:01:41;;;;;;;20.87;19.07;;;4.20;99.90;;;;;;4915634;29;20231;-82
2022/11/25 08:04:09;;;;;;;20.40;18.47;;;4.20;99.90;;;;;;4913023;29;20275;-82
2022/11/25 08:06:39;;;;;;;18.73;17.30;;;4.40;99.90;;;;;;4913565;29;20200;-82
2022/11/25 08:09:06;;;;;;;18.90;17.50;;;4.50;99.90;;;;;;4915934;29;20212;-82
2022/11/25 08:11:35;;;;;;;19.10;17.60;;;4.50;99.90;;;;;;4913554;29;20223;-82
2022/11/25 08:14:02;;;;;;;18.97;17.50;;;4.50;99.90;;;;;;4913854;29;20276;-83
2022/11/25 08:16:30;;;;;;;18.70;17.30;;;4.50;99.90;;;;;;4915675;29;20662;-82
2022/11/25 08:18:58;;;;;;;19.30;17.80;;;4.40;99.90;;;;;;4912650;29;20197;-82
2022/11/25 08:21:25;;;;;;;18.83;17.33;;;4.40;99.90;;;;;;4917388;29;20212;-82
2022/11/25 08:23:52;;;;;;;19.10;17.73;;;4.40;99.90;;;;;;4915811;29;20567;-82
2022/11/25 08:26:21;;;;;;;19.73;18.23;;;4.40;99.90;;;;;;4913247;29;20200;-82
2022/11/25 08:28:50;;;;;;;18.63;17.17;;;4.50;99.90;;;;;;4912610;29;20203;-83
2022/11/25 08:31:20;;;;;;;19.70;18.10;;;4.50;99.90;;;;;;4910458;29;20274;-82
2022/11/25 08:33:47;;;;;;;19.50;17.90;;;4.50;99.90;;;;;;4912979;29;20207;-82
2022/11/25 08:36:15;;;;;;;19.57;17.80;;;4.60;99.90;;;;;;4911864;29;20213;-82
2022/11/25 08:38:42;;;;;;;18.70;17.30;;;4.70;99.90;;;;;;4913269;29;20197;-82
2022/11/25 08:41:11;;;;;;;18.40;16.93;;;4.80;99.90;;;;;;4911289;29;20225;-83
2022/11/25 08:43:38;;;;;;;18.60;17.17;;;5.00;99.90;;;;;;4915828;29;20585;-82
2022/11/25 08:46:11;;;;;;;18.33;16.70;;;5.10;99.90;;;;;;4916455;29;20219;-81
2022/11/25 08:48:38;;;;;;;15.67;14.37;;;5.30;99.90;;;;;;4905837;29;20564;-81
2022/11/25 08:51:10;;;;;;;18.20;16.80;;;5.40;99.90;;;;;;4914501;29;20256;-82
2022/11/25 08:53:38;;;;;;;15.87;14.47;;;5.50;99.90;;;;;;4913976;29;20664;-82
2022/11/25 08:56:05;;;;;;;14.77;13.57;;;5.60;99.90;;;;;;4912580;29;20197;-82
2022/11/25 08:58:32;;;;;;;14.53;13.53;;;5.60;99.90;;;;;;4911035;29;20193;-82
2022/11/25 09:00:59;;;;;;;13.90;12.80;;;5.60;99.90;;;;;;4913619;29;20240;-82
2022/11/25 09:03:28;;;;;;;15.90;14.70;;;5.60;99.90;;;;;;4910718;29;20213;-83
2022/11/25 09:05:55;;;;;;;13.93;12.73;;;5.60;99.90;;;;;;4906752;29;20283;-81
2022/11/25 09:08:22;;;;;;;17.40;15.97;;;5.50;99.90;;;;;;4913299;29;20205;-82
2022/11/25 09:10:48;;;;;;;17.43;16.33;;;5.40;99.90;;;;;;4915922;29;20291;-82
2022/11/25 09:13:15;;;;;;;17.67;16.23;;;5.40;99.90;;;;;;4918006;29;20717;-82
2022/11/25 09:15:42;;;;;;;16.57;15.47;;;5.40;99.90;;;;;;4899727;29;20201;-82
2022/11/25 09:18:11;;;;;;;16.40;15.30;;;5.40;99.90;;;;;;4913350;29;20205;-82
2022/11/25 09:20:40;;;;;;;16.57;15.37;;;5.50;99.90;;;;;;4917673;29;20201;-82
2022/11/25 09:23:08;;;;;;;17.00;15.80;;;5.50;99.90;;;;;;4910724;29;20207;-82
2022/11/25 09:25:36;;;;;;;17.20;15.93;;;5.60;99.90;;;;;;4914005;29;20218;-81
2022/11/25 09:28:03;;;;;;;17.30;15.90;;;5.70;99.90;;;;;;4918180;29;20200;-82
2022/11/25 09:30:32;;;;;;;17.33;15.87;;;5.90;99.90;;;;;;4912374;29;20666;-82
2022/11/25 09:32:59;;;;;;;16.20;14.87;;;6.10;99.90;;;;;;4911762;29;20209;-81
2022/11/25 09:35:26;;;;;;;15.87;14.73;;;6.30;99.90;;;;;;4917210;29;20198;-82
2022/11/25 09:37:54;;;;;;;17.43;16.23;;;6.50;99.90;;;;;;4913496;29;20198;-82
2022/11/25 09:40:30;;;;;;;14.23;13.30;;;6.80;99.90;;;;;;4909755;29;20257;-80
2022/11/25 09:48:59;;;;;;;15.37;14.10;;;7.40;99.90;;;;;;4850434;29;20650;-80
2022/11/25 09:51:35;;;;;;;14.93;13.73;;;7.50;99.90;;;;;;4891150;29;20222;-81
2022/11/25 09:54:10;;;;;;;15.40;14.40;;;7.70;99.90;;;;;;4901495;29;20211;-81
2022/11/25 09:56:42;;;;;;;15.80;14.50;;;7.80;99.90;;;;;;4895634;29;20208;-81
2022/11/25 09:59:15;;;;;;;13.73;12.77;;;7.90;99.90;;;;;;4907823;29;20295;-81
2022/11/25 10:01:48;;;;;;;14.00;13.03;;;8.00;99.90;;;;;;4915749;29;20224;-82
2022/11/25 10:04:22;;;;;;;15.00;13.90;;;8.10;99.90;;;;;;4903978;29;20207;-82
2022/11/25 10:06:53;;;;;;;14.00;13.07;;;8.20;99.90;;;;;;4915860;29;20199;-81
2022/11/25 10:09:25;;;;;;;12.07;11.17;;;8.30;99.90;;;;;;4914156;29;20200;-81
2022/11/25 10:11:53;;;;;;;10.20;9.20;;;8.40;99.90;;;;;;4911179;29;20260;-81
2022/11/25 10:14:29;;;;;;;11.17;10.00;;;8.50;99.90;;;;;;4907420;29;20204;-81
2022/11/25 10:17:03;;;;;;;9.07;5.97;;;8.60;99.90;;;;;;4907947;29;20215;-81
2022/11/25 10:19:39;;;;;;;8.67;5.37;;;8.80;99.90;;;;;;4896923;29;20202;-82
2022/11/25 10:22:18;;;;;;;9.63;8.63;;;8.80;99.90;;;;;;4901457;29;20247;-81
2022/11/25 10:24:47;;;;;;;12.60;11.60;;;8.80;99.90;;;;;;4882389;29;20773;-81
2022/11/25 10:27:18;;;;;;;5.70;5.10;;;8.70;99.90;;;;;;4912647;29;20211;-81
2022/11/25 10:29:52;;;;;;;6.50;5.30;;;8.60;99.90;;;;;;4909918;29;20782;-81
2022/11/25 10:32:23;;;;;;;9.10;8.30;;;8.50;99.90;;;;;;4909511;29;20242;-81
2022/11/25 10:34:54;;;;;;;11.90;10.83;;;8.50;99.90;;;;;;4904786;29;20690;-81
2022/11/25 10:37:28;;;;;;;11.17;9.90;;;8.50;99.90;;;;;;4915190;29;20264;-81
2022/11/25 10:39:56;;;;;;;10.37;9.40;;;8.40;99.90;;;;;;4906939;29;20279;-81
2022/11/25 10:42:25;;;;;;;10.63;7.20;;;8.50;99.90;;;;;;4916904;29;20295;-81
2022/11/25 10:44:53;;;;;;;8.57;7.50;;;8.50;99.90;;;;;;4913225;29;20220;-81
2022/11/25 10:47:33;;;;;;;7.53;6.77;;;8.60;99.90;;;;;;4916096;29;20191;-81
2022/11/25 10:50:11;;;;;;;6.20;5.60;;;8.70;99.90;;;;;;4908537;29;20215;-81
2022/11/25 10:52:44;;;;;;;9.43;8.57;;;8.90;99.90;;;;;;4904473;29;20215;-81
2022/11/25 10:55:15;;;;;;;10.67;9.67;;;8.90;99.90;;;;;;4909499;29;20215;-81
2022/11/25 10:57:42;;;;;;;13.30;12.40;;;9.00;99.90;;;;;;4911647;29;20200;-81
2022/11/25 11:00:28;;;;;;;13.30;12.40;;;9.10;99.90;;;;;;4905279;29;20230;-81
2022/11/25 11:02:56;;;;;;;6.93;6.13;;;9.10;99.90;;;;;;4908680;29;20298;-81
2022/11/25 11:05:25;;;;;;;8.63;7.17;;;9.00;99.90;;;;;;4912229;29;20705;-82
2022/11/25 11:08:09;;;;;;;8.60;7.80;;;8.90;99.90;;;;;;4904362;29;20253;-82
2022/11/25 11:10:38;;;;;;;10.10;9.10;;;9.00;99.90;;;;;;4905931;29;20240;-82
2022/11/25 11:13:17;;;;;;;13.33;12.13;;;8.90;99.90;;;;;;4908184;29;20657;-82
2022/11/25 11:15:46;;;;;;;15.50;14.30;;;8.80;99.90;;;;;;4911668;29;20203;-81
2022/11/25 11:18:25;;;;;;;15.13;13.83;;;8.60;99.90;;;;;;4911318;29;20203;-84
2022/11/25 11:20:54;;;;;;;14.60;13.40;;;8.50;99.90;;;;;;4910950;29;20219;-82
2022/11/25 11:23:21;;;;;;;14.87;13.67;;;8.40;99.90;;;;;;4908017;29;20205;-85
2022/11/25 11:25:58;;;;;;;14.53;13.40;;;8.40;99.90;;;;;;4912912;29;20223;-83
2022/11/25 11:28:37;;;;;;;15.20;14.00;;;8.40;99.90;;;;;;4911379;29;20191;-82
2022/11/25 11:31:06;;;;;;;14.73;13.53;;;8.40;99.90;;;;;;4909612;29;20224;-82
2022/11/25 11:33:37;;;;;;;14.40;13.40;;;8.40;99.90;;;;;;4911960;29;20272;-83
2022/11/25 11:36:20;;;;;;;14.40;13.33;;;8.50;99.90;;;;;;4905758;29;20204;-82
2022/11/25 11:38:53;;;;;;;14.53;13.53;;;8.50;99.90;;;;;;4911870;29;20228;-83
2022/11/25 11:41:30;;;;;;;15.33;14.17;;;8.40;99.90;;;;;;4913807;29;20247;-83
2022/11/25 11:44:07;;;;;;;14.60;13.60;;;8.40;99.90;;;;;;4907863;29;20203;-83
2022/11/25 11:46:49;;;;;;;14.70;13.60;;;8.40;99.90;;;;;;4915223;29;20223;-83
2022/11/25 11:49:43;;;;;;;14.13;13.13;;;8.50;99.90;;;;;;4914708;29;20204;-83
2022/11/25 11:52:18;;;;;;;14.30;13.20;;;8.50;99.90;;;;;;4910812;29;20228;-82
2022/11/25 11:54:51;;;;;;;14.83;13.57;;;8.60;99.90;;;;;;4914081;29;20543;-82
2022/11/25 11:57:31;;;;;;;14.50;13.30;;;8.60;99.90;;;;;;4916197;29;20199;-81
2022/11/25 12:00:03;;;;;;;14.77;13.57;;;8.80;99.90;;;;;;4909978;29;20191;-81
2022/11/25 12:02:53;;;;;;;15.00;13.77;;;8.90;99.90;;;;;;4904773;29;20223;-81
2022/11/25 12:05:25;;;;;;;14.70;13.40;;;8.90;99.90;;;;;;4916766;29;20220;-81
2022/11/25 12:08:01;;;;;;;15.13;13.83;;;9.00;99.90;;;;;;4879398;29;20670;-82
2022/11/25 12:10:32;;;;;;;14.37;13.37;;;8.90;99.90;;;;;;4901109;29;20665;-81
2022/11/25 12:13:11;;;;;;;13.80;12.83;;;8.90;99.90;;;;;;4915402;29;20231;-80
2022/11/25 12:15:45;;;;;;;14.53;13.40;;;8.90;99.90;;;;;;4909165;29;20204;-81
2022/11/25 12:18:23;;;;;;;13.93;12.80;;;8.90;99.90;;;;;;4907090;29;20669;-80
2022/11/25 12:20:57;;;;;;;14.50;13.30;;;8.90;99.90;;;;;;4911177;29;20223;-81
2022/11/25 12:23:29;;;;;;;14.37;13.30;;;8.90;99.90;;;;;;4909228;29;20219;-81
2022/11/25 12:26:01;;;;;;;13.90;12.90;;;8.90;99.90;;;;;;4908864;29;20218;-81
2022/11/25 12:28:39;;;;;;;13.60;12.60;;;8.90;99.90;;;;;;4894492;29;20192;-81
2022/11/25 12:31:15;;;;;;;13.97;12.73;;;9.00;99.90;;;;;;4913402;29;20275;-81
2022/11/25 12:33:55;;;;;;;12.53;11.63;;;9.00;99.90;;;;;;4913793;29;20419;-81
2022/11/25 12:36:30;;;;;;;13.40;12.40;;;9.10;99.90;;;;;;4899487;29;20224;-81
2022/11/25 12:39:02;;;;;;;13.80;12.90;;;9.20;99.90;;;;;;4918971;29;20205;-81
2022/11/25 12:41:41;;;;;;;14.10;12.90;;;9.30;99.90;;;;;;4924707;29;20219;-81
2022/11/25 12:44:17;;;;;;;13.67;12.67;;;9.40;99.90;;;;;;4912618;29;20212;-81
2022/11/25 12:46:46;;;;;;;13.30;12.40;;;9.40;99.90;;;;;;4914150;29;20562;-81
2022/11/25 12:49:18;;;;;;;13.97;12.83;;;9.40;99.90;;;;;;4911843;29;20209;-82
2022/11/25 12:52:03;;;;;;;14.03;12.93;;;9.40;99.90;;;;;;4902036;29;20228;-81
2022/11/25 12:54:45;;;;;;;14.37;13.30;;;9.50;99.90;;;;;;4902181;29;20672;-81
2022/11/25 12:57:40;;;;;;;14.43;13.43;;;9.50;99.90;;;;;;4914363;29;20720;-81
2022/11/25 13:00:19;;;;;;;14.30;13.20;;;9.50;99.90;;;;;;4911388;29;20209;-81
2022/11/25 13:03:31;;;;;;;14.90;13.87;;;9.40;99.90;;;;;;4915694;29;20234;-81
2022/11/25 13:06:27;;;;;;;14.37;13.33;;;9.40;99.90;;;;;;4920206;29;20617;-81
2022/11/25 13:08:59;;;;;;;13.93;12.93;;;9.40;99.90;;;;;;4905052;29;20610;-81
2022/11/25 13:12:01;;;;;;;14.70;13.50;;;9.50;99.90;;;;;;4902140;29;20700;-81
2022/11/25 13:14:42;;;;;;;13.33;12.33;;;9.40;99.90;;;;;;4913712;29;20206;-81
2022/11/25 13:17:13;;;;;;;13.77;12.70;;;9.40;99.90;;;;;;4913969;29;20210;-81
2022/11/25 13:19:41;;;;;;;13.27;12.37;;;9.40;99.90;;;;;;4904669;29;20611;-81
2022/11/25 13:22:26;;;;;;;12.93;11.93;;;9.50;99.90;;;;;;4900197;29;20229;-79
2022/11/25 13:24:53;;;;;;;13.57;12.57;;;9.50;99.90;;;;;;4900189;29;20240;-82
2022/11/25 13:27:30;;;;;;;13.23;12.33;;;9.50;99.90;;;;;;4894627;29;20263;-82
2022/11/25 13:29:59;;;;;;;13.20;12.20;;;9.50;99.90;;;;;;4904697;29;20195;-82
2022/11/25 13:32:45;;;;;;;12.53;11.60;;;9.50;99.90;;;;;;4910533;29;20271;-81
2022/11/25 13:35:57;;;;;;;12.50;11.60;;;9.50;99.90;;;;;;4913175;29;20744;-81
2022/11/25 13:38:56;;;;;;;13.07;11.93;;;9.40;99.90;;;;;;4909140;29;20215;-81
2022/11/25 13:41:43;;;;;;;12.67;11.87;;;9.40;99.90;;;;;;4908728;29;20230;-83
2022/11/25 13:44:27;;;;;;;12.30;11.47;;;9.30;99.90;;;;;;4909343;29;20214;-82
2022/11/25 13:46:57;;;;;;;12.70;11.77;;;9.20;99.90;;;;;;4908515;29;20219;-83
2022/11/25 13:49:34;;;;;;;11.87;11.17;;;9.20;99.90;;;;;;4907682;29;20197;-83
2022/11/25 13:52:05;;;;;;;12.20;11.40;;;9.30;99.90;;;;;;4910524;29;20235;-81
2022/11/25 13:54:38;;;;;;;11.70;11.00;;;9.40;99.90;;;;;;4911355;29;20215;-83
2022/11/25 13:57:19;;;;;;;12.03;11.23;;;9.40;99.90;;;;;;4911069;29;20216;-82
2022/11/25 13:59:53;;;;;;;12.20;11.40;;;9.40;99.90;;;;;;4904383;29;20208;-83
2022/11/25 14:02:44;;;;;;;12.43;11.63;;;9.40;99.90;;;;;;4913138;29;20235;-83
2022/11/25 14:05:47;;;;;;;12.67;11.67;;;9.40;99.90;;;;;;4906481;29;20291;-82
2022/11/25 14:08:26;;;;;;;12.10;11.30;;;9.50;99.90;;;;;;4907875;29;20661;-83
2022/11/25 14:11:03;;;;;;;12.20;11.40;;;9.50;99.90;;;;;;4914586;29;20219;-81
2022/11/25 14:13:56;;;;;;;12.17;11.37;;;9.50;99.90;;;;;;4913241;29;20584;-82
2022/11/25 14:16:40;;;;;;;11.93;11.17;;;9.60;99.90;;;;;;4907429;29;20695;-82
2022/11/25 14:19:43;;;;;;;11.90;11.20;;;9.70;99.90;;;;;;4899380;29;20209;-82
2022/11/25 14:22:25;;;;;;;12.57;11.77;;;9.70;99.90;;;;;;4903169;29;20250;-83
2022/11/25 14:24:55;;;;;;;12.67;11.87;;;9.70;99.90;;;;;;4908298;29;20571;-83
2022/11/25 14:27:25;;;;;;;12.50;11.70;;;9.70;99.90;;;;;;4912240;29;20232;-83
2022/11/25 14:29:58;;;;;;;12.37;11.50;;;9.60;99.90;;;;;;4912911;29;20196;-83
2022/11/25 14:32:32;;;;;;;12.00;11.30;;;9.50;99.90;;;;;;4905941;29;20228;-84
2022/11/25 14:35:05;;;;;;;12.60;11.60;;;9.50;99.90;;;;;;4911911;29;20218;-82
2022/11/25 14:37:41;;;;;;;11.80;11.10;;;9.50;99.90;;;;;;4908005;29;20202;-83
2022/11/25 14:40:12;;;;;;;11.50;10.80;;;9.50;99.90;;;;;;4905945;29;20208;-79
2022/11/25 14:42:43;;;;;;;11.43;10.80;;;9.40;99.90;;;;;;4896635;29;20260;-81
2022/11/25 14:45:21;;;;;;;12.10;11.20;;;9.40;99.90;;;;;;4912812;29;20211;-84
2022/11/25 14:47:47;;;;;;;11.97;11.20;;;9.40;99.90;;;;;;4902672;29;20319;-82
2022/11/25 14:50:15;;;;;;;11.90;11.20;;;9.40;99.90;;;;;;4894923;29;20224;-83
2022/11/25 14:52:46;;;;;;;11.97;11.27;;;9.30;99.90;;;;;;4896471;29;20216;-81
2022/11/25 14:55:23;;;;;;;12.20;11.40;;;9.30;99.90;;;;;;4898505;29;20219;-81
2022/11/25 14:57:50;;;;;;;12.23;11.43;;;9.30;99.90;;;;;;4896316;29;20614;-82
2022/11/25 15:00:18;;;;;;;12.77;12.07;;;9.20;99.90;;;;;;4895940;29;20658;-83
2022/11/25 15:02:54;;;;;;;13.00;12.20;;;9.20;99.90;;;;;;4908099;29;20223;-82
2022/11/25 15:05:23;;;;;;;12.43;11.63;;;9.20;99.90;;;;;;4908389;29;20603;-82
2022/11/25 15:08:03;;;;;;;12.10;11.40;;;9.10;99.90;;;;;;4915310;29;20641;-83
2022/11/25 15:10:37;;;;;;;12.70;11.90;;;9.00;99.90;;;;;;4902845;29;20673;-82
2022/11/25 15:13:12;;;;;;;12.57;11.77;;;9.00;99.90;;;;;;4912105;29;20215;-82
2022/11/25 15:15:39;;;;;;;12.40;11.60;;;8.90;99.90;;;;;;4909062;29;20203;-82
2022/11/25 15:18:08;;;;;;;13.40;12.40;;;8.90;99.90;;;;;;4913908;29;20200;-83
2022/11/25 15:20:35;;;;;;;12.87;12.07;;;8.90;99.90;;;;;;4904410;29;20583;-82
2022/11/25 15:23:04;;;;;;;13.00;12.10;;;8.80;99.90;;;;;;4911616;29;20684;-82
2022/11/25 15:25:31;;;;;;;13.30;12.33;;;8.70;99.90;;;;;;4910739;29;20207;-85
2022/11/25 15:27:58;;;;;;;13.47;12.37;;;8.70;99.90;;;;;;4893856;29;20320;-83
2022/11/25 15:30:28;;;;;;;13.20;12.37;;;8.60;99.90;;;;;;4898401;29;20224;-82
2022/11/25 15:32:56;;;;;;;12.57;11.73;;;8.60;99.90;;;;;;4906852;29;20341;-83
2022/11/25 15:35:27;;;;;;;12.97;12.10;;;8.60;99.90;;;;;;4909518;29;20220;-79
2022/11/25 15:37:54;;;;;;;12.83;12.03;;;8.60;99.90;;;;;;4914435;29;20204;-80
2022/11/25 15:40:35;;;;;;;12.70;11.70;;;8.50;99.90;;;;;;4912030;29;20218;-81
2022/11/25 15:43:05;;;;;;;12.57;11.80;;;8.50;99.90;;;;;;4904376;29;20213;-81
2022/11/25 15:45:37;;;;;;;12.23;11.43;;;8.50;99.90;;;;;;4904416;29;20210;-80
2022/11/25 15:48:04;;;;;;;11.60;10.77;;;8.50;99.90;;;;;;4905475;29;20732;-81
2022/11/25 15:50:34;;;;;;;11.93;11.13;;;8.40;99.90;;;;;;4912828;29;20222;-81
2022/11/25 15:53:01;;;;;;;11.87;11.00;;;8.40;99.90;;;;;;4904925;29;20264;-81
2022/11/25 15:55:33;;;;;;;11.80;11.10;;;8.30;99.90;;;;;;4901388;29;20206;-81
2022/11/25 15:58:05;;;;;;;12.77;11.73;;;8.30;99.90;;;;;;4906501;29;20207;-82
2022/11/25 16:00:34;;;;;;;13.43;12.53;;;8.20;99.90;;;;;;4900816;29;20238;-81
2022/11/25 16:03:02;;;;;;;13.00;12.20;;;8.20;99.90;;;;;;4884617;29;20237;-81
2022/11/25 16:05:36;;;;;;;13.13;12.27;;;8.10;99.90;;;;;;4892420;29;20253;-81
2022/11/25 16:08:29;;;;;;;12.87;11.97;;;8.10;99.90;;;;;;4909940;29;20228;-81
2022/11/25 16:10:59;;;;;;;12.93;12.07;;;8.10;99.90;;;;;;4912409;29;20226;-82
2022/11/25 16:13:35;;;;;;;12.93;12.13;;;8.10;99.90;;;;;;4915776;29;20224;-81
2022/11/25 16:16:22;;;;;;;13.60;12.40;;;8.10;99.90;;;;;;4906704;29;20232;-81